Flight Track Log - Related Links

Times and Time Zones

All times are in EDT time to prevent confusion due to time zone crossing. See the AWI3778 flight status page for this flight to view local times or setup timezone preferences in your user account.


Time Position Orientation Groundspeed Altitude Reporting Facility
EDT Latitude Longitude Course Direction KTS MPH feet Rate Location/Type
Mon 11:51:30 AM 39.8667 -75.2667 37° Northeast 167 192 700  Level Philadelphia TRACON
Mon 11:52:42 AM 39.8167 -75.3167 218° Southwest 209 241 2,900 1,714 Climbing Philadelphia TRACON
Mon 11:54:39 AM 39.7353 -75.2817 162° South 269 310 6,100 1,851 Climbing New York Center
Mon 11:55:37 AM 39.7600 -75.1808 72° East 257 296 8,300 2,051 Climbing New York Center
Mon 11:56:00 AM 39.8936 -74.5898 37° Northeast  Level FlightAware Approximate
Mon 11:56:36 AM 39.7853 -75.0661 74° East 284 327 10,100  Level New York Center
Mon 11:57:37 AM 39.7875 -74.9447 89° East 311 358 11,800 934 Climbing New York Center
Mon 11:58:38 AM 39.7919 -74.8125 87° East 337 388 12,000 149 Climbing New York Center
Mon 11:59:38 AM 39.8256 -74.6819 71° East 365 420 12,100 1,150 Climbing New York Center
Mon 12:00:38 PM 39.9117 -74.6003 36° Northeast 352 405 14,300 1,916 Climbing New York Center
Mon 12:01:37 PM 39.9978 -74.5183 36° Northeast 352 405 15,900 1,916 Climbing New York Center
Mon 12:02:37 PM 40.0839 -74.4308 38° Northeast 384 442 18,100 1,770 Climbing New York Center
Mon 12:03:39 PM 40.1678 -74.3508 36° Northeast 384 442 19,500 1,180 Climbing New York Center
Mon 12:04:39 PM 40.2594 -74.2794 31° Northeast 379 436 20,500 1,017 Climbing New York Center
Mon 12:05:37 PM 40.3631 -74.2331 19° North 379 436 21,500 1,017 Climbing New York Center
Mon 12:06:37 PM 40.4744 -74.1978 14° North 393 452 22,500 992 Climbing New York Center
Mon 12:07:38 PM 40.5858 -74.1622 14° North 399 459 23,500 984 Climbing New York Center
Mon 12:08:39 PM 40.6972 -74.1242 15° North 404 465 24,500 756 Climbing New York Center
Mon 12:09:37 PM 40.8150 -74.0889 13° North 409 471 25,000 153 Climbing New York Center
Mon 12:11:55 PM 41.0703 -74.0067 14° North 426 490 25,000  Level Boston Center
Mon 12:12:55 PM 41.1833 -73.9681 14° North 426 490 25,000  Level Boston Center
Mon 12:13:55 PM 41.2944 -73.9292 15° North 416 479 25,000  Level Boston Center
Mon 12:14:55 PM 41.4033 -73.8875 16° North 411 473 25,000  Level Boston Center
Mon 12:15:55 PM 41.5064 -73.8122 29° Northeast 411 473 25,000  Level Boston Center
Mon 12:16:55 PM 41.6094 -73.7367 29° Northeast 411 473 25,000  Level Boston Center
Mon 12:17:55 PM 41.7142 -73.6889 19° North 405 466 25,000  Level Boston Center
Mon 12:18:55 PM 41.8228 -73.6603 11° North 392 451 25,000  Level Boston Center
Mon 12:19:55 PM 41.9336 -73.6317 11° North 392 451 25,000  Level Boston Center
Mon 12:20:55 PM 42.0444 -73.6003 12° North 392 451 25,000  Level Boston Center
Mon 12:21:55 PM 42.1556 -73.5322 24° Northeast 407 468 25,000  Level Boston Center
Mon 12:22:55 PM 42.2622 -73.4947 15° North 407 468 25,000  Level Boston Center
Mon 12:24:07 PM 42.3706 -73.4883 North 389 448 25,000  Level Boston Center
Mon 12:25:07 PM 42.5042 -73.4681 North 389 448 25,000  Level Boston Center
Mon 12:26:07 PM 42.6128 -73.4386 11° North 389 448 25,000  Level Boston Center
Mon 12:27:07 PM 42.7236 -73.3811 21° North 394 453 25,000  Level Boston Center
Mon 12:28:07 PM 42.8431 -73.3208 20° North 405 466 25,000  Level Boston Center
Mon 12:29:07 PM 42.9308 -73.2767 20° North 411 473 25,000  Level Boston Center
Mon 12:30:19 PM 43.0606 -73.2131 20° North 411 473 25,000  Level Boston Center
Mon 12:31:19 PM 43.1881 -73.1492 20° North 411 473 25,000  Level Boston Center
Mon 12:32:30 PM 43.2967 -73.0961 20° North 411 473 25,000 -91 Level Boston Center
Mon 12:33:31 PM 43.4117 -73.0289 23° Northeast 406 467 24,800 -496 Descending Boston Center
Mon 12:34:31 PM 43.5222 -73.0386 356° North 391 450 24,000 -400 Descending Boston Center
Mon 12:35:31 PM 43.6325 -73.0539 354° North 391 450 24,000 -870 Level Boston Center
Mon 12:36:42 PM 43.7408 -73.0694 354° North 391 450 22,100 -2,318 Descending Boston Center
Mon 12:37:43 PM 43.8761 -73.0853 355° North 379 436 18,900 -3,025 Descending Boston Center
Mon 12:38:43 PM 43.9739 -73.0978 355° North 362 417 16,000 -3,100 Descending Boston Center
Mon 12:39:43 PM 44.0697 -73.1075 356° North 353 406 12,700 -2,900 Descending Boston Center
Mon 12:40:43 PM 44.1531 -73.1200 354° North 315 362 10,200 -2,700 Descending Boston Center
Mon 12:41:43 PM 44.2139 -73.0425 42° Northeast 263 303 7,300 -2,250 Descending Boston Center
Mon 12:42:43 PM 44.2622 -72.9647 49° Northeast 263 303 5,700 -900 Descending Boston Center
Mon 12:43:43 PM 44.3186 -72.9508 10° North 222 255 5,500 -200 Descending Boston Center

Login

Don't have an account? Register now (free) for customized features, flight alerts, and more!